Terminal Aerodrome Forecast
Issued by NWS Amarillo, TX

Home | Current Version | Previous Version | Text Only | Print | Product List | Glossary On
Versions: 1 2 3 4 5 6 7 8 9 10 11 12 13
414
FTUS44 KAMA 222334
TAFAMA
TAF
KAMA 222334Z 2300/2324 23009KT P6SM BKN300
     FM231600 24030G40KT P6SM SCT300=

USA.gov is the U.S. government's official web portal to all federal, state and local government web resources and services.